Time;durP1;ratioP1;P1;durP2;ratioP2;P2;SDS_P1;SDS_P2;PMS_P1;PMS_P2;Temp;Humidity;BMP_temperature;BMP_pressure;BME280_temperature;BME280_humidity;BME280_pressure;Samples;Min_cycle;Max_cycle;Signal;HPM_P1;HPM_P2
2022/01/22 00:00:23;;;;;;;11.98;3.55;;;5.10;99.90;;;;;;4969777;28;20037;-76
2022/01/22 00:02:49;;;;;;;10.55;3.65;;;5.10;99.90;;;;;;4971011;28;20034;-77
2022/01/22 00:05:17;;;;;;;15.50;3.33;;;5.10;99.90;;;;;;4972079;28;20154;-76
2022/01/22 00:07:43;;;;;;;11.18;3.22;;;5.10;99.90;;;;;;4972061;28;20034;-76
2022/01/22 00:10:14;;;;;;;14.05;4.65;;;5.10;99.90;;;;;;4972134;28;20027;-77
2022/01/22 00:15:17;;;;;;;10.77;2.95;;;5.00;99.90;;;;;;4973239;28;20027;-77
2022/01/22 00:17:44;;;;;;;8.00;2.60;;;5.00;99.90;;;;;;4970773;28;20070;-78
2022/01/22 00:20:11;;;;;;;20.02;3.42;;;5.10;99.90;;;;;;4972507;28;20041;-77
2022/01/22 00:22:37;;;;;;;13.85;3.40;;;5.00;99.90;;;;;;4972398;28;20558;-77
2022/01/22 00:25:08;;;;;;;12.30;2.67;;;5.00;99.90;;;;;;4972465;28;20104;-77
2022/01/22 00:27:35;;;;;;;14.45;3.33;;;5.10;99.90;;;;;;4972070;28;20035;-77
2022/01/22 00:30:00;;;;;;;9.88;3.03;;;5.10;99.90;;;;;;4969748;28;20027;-77
2022/01/22 00:32:26;;;;;;;16.33;4.07;;;5.10;99.90;;;;;;4972126;28;20034;-77
2022/01/22 00:34:51;;;;;;;9.20;2.03;;;5.10;99.90;;;;;;4972245;28;20062;-78
2022/01/22 00:37:17;;;;;;;14.45;2.47;;;5.10;99.90;;;;;;4971579;28;20390;-77
2022/01/22 00:39:43;;;;;;;16.77;2.72;;;5.10;99.90;;;;;;4954377;28;20566;-77
2022/01/22 00:42:13;;;;;;;9.73;2.35;;;5.20;99.90;;;;;;4967427;28;20421;-77
2022/01/22 00:44:39;;;;;;;15.07;3.00;;;5.20;99.90;;;;;;4965653;28;20058;-77
2022/01/22 00:47:05;;;;;;;14.50;3.47;;;5.10;99.90;;;;;;4971325;28;20113;-77
2022/01/22 00:49:31;;;;;;;11.88;3.50;;;5.10;99.90;;;;;;4971440;28;20451;-77
2022/01/22 00:51:58;;;;;;;16.08;4.10;;;5.10;99.90;;;;;;4967124;28;20065;-76
2022/01/22 00:54:24;;;;;;;13.40;4.28;;;5.10;99.90;;;;;;4961447;28;20088;-77
2022/01/22 00:56:50;;;;;;;13.80;4.28;;;5.10;99.90;;;;;;4970236;28;20055;-77
2022/01/22 00:59:15;;;;;;;11.82;5.15;;;5.10;99.90;;;;;;4970677;28;20486;-77
2022/01/22 01:01:41;;;;;;;11.57;4.35;;;5.10;99.90;;;;;;4970851;28;20030;-76
2022/01/22 01:04:09;;;;;;;13.82;5.05;;;5.10;99.90;;;;;;4971303;28;20097;-77
2022/01/22 01:06:35;;;;;;;14.98;5.57;;;5.00;99.90;;;;;;4968928;28;20034;-77
2022/01/22 01:09:04;;;;;;;14.85;5.07;;;5.00;99.90;;;;;;4972245;28;20502;-77
2022/01/22 01:11:32;;;;;;;20.35;6.30;;;5.10;99.90;;;;;;4970813;28;20027;-77
2022/01/22 01:14:01;;;;;;;22.20;8.80;;;5.00;99.90;;;;;;4970895;28;20411;-77
2022/01/22 01:32:55;;;;;;;29.90;9.77;;;5.00;99.90;;;;;;4970175;28;20058;-77
2022/01/22 01:35:22;;;;;;;21.25;9.45;;;5.00;99.90;;;;;;4970731;28;20035;-77
2022/01/22 01:37:49;;;;;;;29.83;10.52;;;5.00;99.90;;;;;;4953147;28;20105;-77
2022/01/22 01:40:18;;;;;;;32.17;10.38;;;5.00;99.90;;;;;;4967378;28;20040;-77
2022/01/22 01:42:53;;;;;;;22.33;10.25;;;5.10;99.90;;;;;;4952247;28;20042;-76
2022/01/22 01:45:18;;;;;;;28.45;11.73;;;5.10;99.90;;;;;;4957541;28;20027;-77
2022/01/22 01:47:47;;;;;;;19.52;9.48;;;5.10;99.90;;;;;;4971358;28;20038;-77
2022/01/22 01:50:13;;;;;;;18.25;11.02;;;5.10;99.90;;;;;;4971783;28;20165;-77
2022/01/22 01:53:02;;;;;;;21.70;11.25;;;5.10;99.90;;;;;;4969254;28;20203;-78
2022/01/22 01:55:35;;;;;;;25.92;10.82;;;5.10;99.90;;;;;;4969821;28;20181;-76
2022/01/22 01:58:00;;;;;;;22.92;11.18;;;5.10;99.90;;;;;;4971128;28;20109;-75
2022/01/22 02:00:26;;;;;;;24.27;12.32;;;5.10;99.90;;;;;;4963406;28;20162;-76
2022/01/22 02:02:53;;;;;;;22.33;11.32;;;5.10;99.90;;;;;;4969971;28;20027;-77
2022/01/22 02:05:21;;;;;;;27.70;13.63;;;5.10;99.90;;;;;;4970953;28;20407;-77
2022/01/22 02:07:48;;;;;;;27.55;11.55;;;5.10;99.90;;;;;;4970020;28;20130;-77
2022/01/22 02:10:22;;;;;;;26.23;11.65;;;5.10;99.90;;;;;;4971486;28;20043;-76
2022/01/22 02:25:58;;;;;;;25.65;11.60;;;5.10;99.90;;;;;;4970722;28;20467;-77
2022/01/22 02:28:24;;;;;;;30.73;12.43;;;5.10;99.90;;;;;;4972989;28;20038;-77
2022/01/22 02:30:56;;;;;;;21.50;10.98;;;5.10;99.90;;;;;;4967799;28;20046;-76
2022/01/22 02:33:38;;;;;;;34.10;12.32;;;5.10;99.90;;;;;;4972363;28;20038;-77
2022/01/22 02:36:18;;;;;;;21.73;10.73;;;5.10;99.90;;;;;;4974801;28;20087;-77
2022/01/22 02:39:36;;;;;;;27.30;12.32;;;5.10;99.90;;;;;;4976004;28;20034;-76
2022/01/22 02:41:33;;;;;;;24.42;11.23;;;5.10;99.90;;;;;;4965779;28;20046;-76
2022/01/22 02:43:58;;;;;;;17.73;11.05;;;5.10;99.90;;;;;;4973709;28;20021;-76
2022/01/22 02:46:26;;;;;;;24.48;10.95;;;5.10;99.90;;;;;;4973793;28;20117;-76
2022/01/22 02:48:54;;;;;;;27.42;13.07;;;5.10;99.90;;;;;;4974839;28;20456;-76
2022/01/22 02:51:21;;;;;;;36.50;13.60;;;5.10;99.90;;;;;;4970612;28;20458;-76
2022/01/22 02:53:49;;;;;;;25.98;11.90;;;5.10;99.90;;;;;;4971958;28;20543;-76
2022/01/22 02:56:16;;;;;;;21.80;12.65;;;5.10;99.90;;;;;;4972770;28;20102;-76
2022/01/22 02:58:41;;;;;;;29.13;12.18;;;5.10;99.90;;;;;;4974491;28;20022;-78
2022/01/22 03:01:07;;;;;;;28.88;11.65;;;5.10;99.90;;;;;;4970928;28;20550;-76
2022/01/22 03:03:33;;;;;;;28.80;13.63;;;5.20;99.90;;;;;;4974770;28;20027;-75
2022/01/22 03:06:01;;;;;;;31.88;12.80;;;5.20;99.90;;;;;;4975772;28;20022;-77
2022/01/22 03:08:28;;;;;;;20.05;11.50;;;5.20;99.90;;;;;;4975157;28;20034;-76
2022/01/22 03:10:54;;;;;;;27.92;12.70;;;5.20;99.90;;;;;;4973374;28;20391;-76
2022/01/22 03:29:04;;;;;;;27.27;11.55;;;5.20;99.90;;;;;;4972473;28;20057;-76
2022/01/22 03:31:30;;;;;;;29.15;12.88;;;5.20;99.90;;;;;;4972697;28;20444;-76
2022/01/22 03:33:56;;;;;;;27.50;14.13;;;5.20;99.90;;;;;;4973515;28;20130;-76
2022/01/22 03:36:23;;;;;;;26.15;10.57;;;5.20;99.90;;;;;;4968903;28;20098;-76
2022/01/22 03:38:49;;;;;;;33.83;12.77;;;5.20;99.90;;;;;;4972202;28;20054;-77
2022/01/22 03:41:14;;;;;;;28.63;12.00;;;5.20;99.90;;;;;;4966918;28;20440;-76
2022/01/22 03:43:40;;;;;;;21.20;11.10;;;5.20;99.90;;;;;;4977223;28;20035;-76
2022/01/22 03:46:06;;;;;;;24.23;11.50;;;5.20;99.90;;;;;;4955102;28;20019;-76
2022/01/22 03:48:31;;;;;;;31.17;13.20;;;5.30;99.90;;;;;;4972678;28;20099;-77
2022/01/22 03:50:57;;;;;;;31.67;11.40;;;5.30;99.90;;;;;;4972892;28;20058;-76
2022/01/22 03:53:23;;;;;;;28.55;12.43;;;5.30;99.90;;;;;;4971217;28;20527;-77
2022/01/22 03:56:01;;;;;;;25.27;12.25;;;5.30;99.90;;;;;;4971382;28;20023;-76
2022/01/22 03:58:26;;;;;;;34.88;12.13;;;5.30;99.90;;;;;;4973509;28;20045;-77
2022/01/22 04:01:06;;;;;;;25.80;11.98;;;5.30;99.90;;;;;;4972119;28;20019;-76
2022/01/22 04:03:37;;;;;;;32.90;11.45;;;5.40;99.90;;;;;;4972273;28;20471;-77
2022/01/22 04:08:46;;;;;;;25.95;11.98;;;5.40;99.90;;;;;;4971133;28;20053;-76
2022/01/22 04:11:15;;;;;;;32.75;11.95;;;5.40;99.90;;;;;;4971262;28;20031;-77
2022/01/22 04:13:42;;;;;;;25.35;10.90;;;5.40;99.90;;;;;;4970954;28;20043;-76
2022/01/22 04:16:08;;;;;;;22.63;11.63;;;5.40;99.90;;;;;;4972840;28;20015;-76
2022/01/22 04:26:56;;;;;;;23.00;9.38;;;5.50;99.90;;;;;;4973511;28;20490;-76
2022/01/22 04:29:25;;;;;;;24.80;10.00;;;5.40;99.90;;;;;;4971272;28;20038;-76
2022/01/22 04:31:51;;;;;;;29.00;11.30;;;5.50;99.90;;;;;;4970454;28;20107;-76
2022/01/22 04:34:17;;;;;;;28.27;10.40;;;5.50;99.90;;;;;;4968548;28;20042;-77
2022/01/22 04:36:43;;;;;;;21.58;10.48;;;5.50;99.90;;;;;;4967082;28;20031;-76
2022/01/22 04:39:09;;;;;;;21.92;9.35;;;5.50;99.90;;;;;;4972894;28;20114;-77
2022/01/22 04:41:36;;;;;;;25.90;10.68;;;5.50;99.90;;;;;;4969886;28;20129;-77
2022/01/22 04:44:04;;;;;;;26.40;10.13;;;5.50;99.90;;;;;;4967391;28;20019;-76
2022/01/22 04:46:51;;;;;;;26.63;9.18;;;5.50;99.90;;;;;;4970403;28;20023;-76
2022/01/22 04:57:20;;;;;;;19.38;8.48;;;5.40;99.90;;;;;;4970389;28;20558;-76
2022/01/22 04:59:45;;;;;;;28.88;9.00;;;5.50;99.90;;;;;;4970748;28;20113;-76
2022/01/22 05:02:11;;;;;;;26.38;8.95;;;5.50;99.90;;;;;;4971451;28;20026;-76
2022/01/22 05:04:37;;;;;;;28.73;9.20;;;5.40;99.90;;;;;;4970878;28;20475;-76
2022/01/22 05:07:02;;;;;;;25.52;8.60;;;5.50;99.90;;;;;;4965564;28;20078;-76
2022/01/22 05:09:28;;;;;;;25.08;9.93;;;5.50;99.90;;;;;;4973818;28;20045;-76
2022/01/22 05:11:54;;;;;;;28.30;9.60;;;5.50;99.90;;;;;;4982172;28;20113;-76
2022/01/22 05:14:19;;;;;;;23.65;9.23;;;5.50;99.90;;;;;;4971057;28;20047;-76
2022/01/22 05:16:45;;;;;;;26.25;9.65;;;5.50;99.90;;;;;;4971388;28;20489;-76
2022/01/22 05:19:17;;;;;;;22.95;8.52;;;5.50;99.90;;;;;;4969551;28;20037;-75
2022/01/22 05:21:44;;;;;;;24.05;9.27;;;5.50;99.90;;;;;;4972652;28;20070;-76
2022/01/22 05:24:15;;;;;;;25.95;9.35;;;5.50;99.90;;;;;;4969970;28;20050;-76
2022/01/22 05:26:58;;;;;;;33.33;9.85;;;5.60;99.90;;;;;;4969949;28;20035;-76
2022/01/22 05:37:03;;;;;;;30.05;14.25;;;5.60;99.90;;;;;;4967128;28;20034;-77
2022/01/22 05:39:30;;;;;;;39.88;14.88;;;5.60;99.90;;;;;;4965918;28;20026;-76
2022/01/22 05:41:59;;;;;;;35.17;17.55;;;5.60;99.90;;;;;;4971287;28;20030;-77
2022/01/22 05:44:25;;;;;;;36.92;18.70;;;5.60;99.90;;;;;;4972424;28;20035;-77
2022/01/22 05:46:53;;;;;;;38.58;19.48;;;5.60;99.90;;;;;;4971224;28;20023;-77
2022/01/22 05:49:24;;;;;;;45.45;20.52;;;5.50;99.90;;;;;;4970796;28;20057;-76
2022/01/22 05:51:52;;;;;;;42.30;20.98;;;5.50;99.90;;;;;;4969577;28;20196;-76
2022/01/22 05:59:40;;;;;;;47.55;21.90;;;5.50;99.90;;;;;;4966721;28;20137;-77
2022/01/22 06:02:14;;;;;;;51.63;22.40;;;5.50;99.90;;;;;;4974811;28;20530;-76
2022/01/22 06:04:40;;;;;;;44.92;22.02;;;5.50;99.90;;;;;;4975297;28;20089;-76
2022/01/22 06:07:07;;;;;;;46.97;21.40;;;5.50;99.90;;;;;;4975396;28;20054;-76
2022/01/22 06:09:34;;;;;;;45.95;22.65;;;5.50;99.90;;;;;;4973519;28;20459;-76
2022/01/22 06:14:28;;;;;;;51.47;23.73;;;5.50;99.90;;;;;;4975243;28;20047;-76
2022/01/22 06:16:54;;;;;;;55.38;24.83;;;5.50;99.90;;;;;;4957984;28;20382;-77
2022/01/22 06:19:19;;;;;;;47.00;23.00;;;5.40;99.90;;;;;;4973066;28;20078;-76
2022/01/22 06:21:45;;;;;;;55.60;23.67;;;5.50;99.90;;;;;;4966655;28;20038;-76
2022/01/22 06:24:12;;;;;;;46.78;22.08;;;5.50;99.90;;;;;;4972101;28;20054;-77
2022/01/22 06:26:38;;;;;;;48.50;23.73;;;5.50;99.90;;;;;;4958396;28;20030;-77
2022/01/22 06:29:04;;;;;;;60.72;24.52;;;5.50;99.90;;;;;;4974875;28;20023;-75
2022/01/22 06:31:30;;;;;;;56.10;24.60;;;5.50;99.90;;;;;;4973538;28;20125;-76
2022/01/22 06:33:58;;;;;;;48.53;23.77;;;5.50;99.90;;;;;;4972057;28;20085;-75
2022/01/22 06:36:23;;;;;;;45.05;23.45;;;5.50;99.90;;;;;;4970273;28;20019;-76
2022/01/22 06:38:55;;;;;;;47.85;21.75;;;5.50;99.90;;;;;;4968646;28;20050;-76
2022/01/22 06:44:05;;;;;;;52.22;20.90;;;5.50;99.90;;;;;;4964995;28;20077;-76
2022/01/22 06:46:31;;;;;;;54.35;20.38;;;5.50;99.90;;;;;;4968369;28;20035;-77
2022/01/22 06:48:56;;;;;;;50.97;21.52;;;5.50;99.90;;;;;;4966778;28;20114;-76
2022/01/22 06:51:22;;;;;;;43.53;19.38;;;5.50;99.90;;;;;;4969489;28;20034;-76
2022/01/22 06:53:49;;;;;;;34.60;16.88;;;5.50;99.90;;;;;;4965752;28;20069;-76
2022/01/22 06:56:20;;;;;;;39.08;17.58;;;5.50;99.90;;;;;;4969428;28;20023;-76
2022/01/22 06:58:46;;;;;;;42.17;14.88;;;5.50;99.90;;;;;;4967478;28;20042;-77
2022/01/22 07:01:11;;;;;;;33.28;13.07;;;5.50;99.90;;;;;;4955429;28;20026;-76
2022/01/22 07:03:37;;;;;;;25.08;11.50;;;5.60;99.90;;;;;;4972160;28;20031;-77
2022/01/22 07:06:02;;;;;;;33.03;12.18;;;5.60;99.90;;;;;;4974970;28;20102;-76
2022/01/22 07:08:28;;;;;;;29.20;10.38;;;5.60;99.90;;;;;;4971776;28;20105;-76
2022/01/22 07:10:54;;;;;;;24.33;10.93;;;5.60;99.90;;;;;;4973653;28;20039;-76
2022/01/22 07:13:19;;;;;;;27.45;10.63;;;5.70;99.90;;;;;;4953818;28;20031;-77
2022/01/22 07:15:45;;;;;;;35.95;11.02;;;5.70;99.90;;;;;;4971459;28;20037;-76
2022/01/22 07:18:13;;;;;;;25.65;9.38;;;5.70;99.90;;;;;;4957307;28;20054;-76
2022/01/22 07:20:40;;;;;;;21.58;8.43;;;5.70;99.90;;;;;;4972481;28;20050;-76
2022/01/22 07:23:20;;;;;;;20.58;7.88;;;5.70;99.90;;;;;;4971027;28;20046;-76
2022/01/22 07:25:46;;;;;;;18.25;7.20;;;5.70;99.90;;;;;;4953998;28;20038;-76
2022/01/22 07:28:12;;;;;;;20.95;6.15;;;5.70;99.90;;;;;;4970891;28;20077;-76
2022/01/22 07:30:39;;;;;;;30.15;7.82;;;5.70;99.90;;;;;;4971371;28;20038;-76
2022/01/22 07:33:05;;;;;;;23.83;6.78;;;5.80;99.90;;;;;;4967863;28;20035;-77
2022/01/22 07:35:34;;;;;;;22.20;6.03;;;5.80;99.90;;;;;;4949516;28;20502;-76
2022/01/22 07:38:00;;;;;;;16.40;5.05;;;5.80;99.90;;;;;;4966556;28;20506;-76
2022/01/22 07:40:26;;;;;;;20.30;4.93;;;5.90;99.90;;;;;;4966745;28;20066;-76
2022/01/22 07:42:52;;;;;;;19.17;5.20;;;5.90;99.90;;;;;;4964222;28;20156;-76
2022/01/22 07:45:18;;;;;;;14.05;4.78;;;6.00;99.90;;;;;;4966882;28;20368;-76
2022/01/22 07:47:43;;;;;;;13.10;5.10;;;6.00;99.90;;;;;;4952406;28;20050;-76
2022/01/22 07:50:09;;;;;;;15.65;4.75;;;6.00;99.90;;;;;;4970301;28;20042;-77
2022/01/22 07:52:35;;;;;;;16.25;5.07;;;6.10;99.90;;;;;;4967440;28;20035;-75
2022/01/22 07:55:01;;;;;;;13.50;4.40;;;6.10;99.90;;;;;;4967076;28;20113;-76
2022/01/22 07:57:26;;;;;;;14.35;4.45;;;6.10;99.90;;;;;;4966593;28;20023;-77
2022/01/22 07:59:52;;;;;;;10.10;4.18;;;6.10;99.90;;;;;;4968009;28;20026;-76
2022/01/22 08:02:17;;;;;;;15.80;4.15;;;6.10;99.90;;;;;;4967837;28;20468;-77
2022/01/22 08:04:43;;;;;;;15.38;5.32;;;6.10;99.90;;;;;;4961496;28;20058;-76
2022/01/22 08:07:08;;;;;;;18.20;5.10;;;6.10;99.90;;;;;;4967642;28;21799;-76
2022/01/22 08:09:34;;;;;;;15.95;4.03;;;6.10;99.90;;;;;;4968242;28;20050;-77
2022/01/22 08:12:01;;;;;;;16.65;4.22;;;6.10;99.90;;;;;;4973234;28;20443;-77
2022/01/22 08:14:27;;;;;;;10.00;3.88;;;6.20;99.90;;;;;;4967098;28;20407;-77
2022/01/22 08:16:52;;;;;;;17.67;4.20;;;6.20;99.90;;;;;;4963814;28;20038;-77
2022/01/22 08:19:18;;;;;;;16.30;4.00;;;6.20;99.90;;;;;;4963532;28;20410;-79
2022/01/22 08:21:45;;;;;;;13.38;4.15;;;6.20;99.90;;;;;;4969246;28;20034;-77
2022/01/22 08:24:13;;;;;;;13.35;3.50;;;6.20;99.90;;;;;;4966839;28;20050;-78
2022/01/22 08:26:42;;;;;;;9.20;2.78;;;6.20;99.90;;;;;;4967351;28;20030;-78
2022/01/22 08:29:08;;;;;;;10.73;4.10;;;6.20;99.90;;;;;;4965657;28;20023;-77
2022/01/22 08:36:45;;;;;;;15.73;4.53;;;6.30;99.90;;;;;;4967646;28;20066;-77
2022/01/22 08:39:13;;;;;;;11.40;3.22;;;6.30;99.90;;;;;;4966686;28;20041;-76
2022/01/22 08:41:38;;;;;;;18.05;3.08;;;6.40;99.90;;;;;;4966738;28;20077;-77
2022/01/22 08:44:04;;;;;;;13.40;3.03;;;6.40;99.90;;;;;;4968536;28;20039;-76
2022/01/22 08:46:31;;;;;;;11.98;2.88;;;6.40;99.90;;;;;;4971934;28;20120;-78
2022/01/22 08:48:57;;;;;;;13.38;3.03;;;6.40;99.90;;;;;;4966210;28;20117;-76
2022/01/22 08:51:22;;;;;;;15.90;3.40;;;6.40;99.90;;;;;;4971082;28;20030;-76
2022/01/22 08:53:49;;;;;;;15.15;2.97;;;6.40;99.90;;;;;;4967781;28;20039;-76
2022/01/22 08:56:15;;;;;;;10.25;3.08;;;6.40;99.90;;;;;;4967595;28;20569;-76
2022/01/22 08:58:41;;;;;;;13.38;3.13;;;6.50;99.90;;;;;;4970267;28;20034;-77
2022/01/22 09:01:08;;;;;;;10.55;2.53;;;6.50;99.90;;;;;;4953824;28;20101;-75
2022/01/22 09:03:33;;;;;;;11.70;2.42;;;6.50;99.90;;;;;;4971246;28;20073;-77
2022/01/22 09:05:59;;;;;;;13.68;4.05;;;6.50;99.90;;;;;;4971802;28;20448;-77
2022/01/22 09:08:25;;;;;;;15.80;3.13;;;6.50;99.90;;;;;;4972110;28;20051;-76
2022/01/22 09:10:52;;;;;;;14.32;3.05;;;6.50;99.90;;;;;;4971511;28;20027;-77
2022/01/22 09:13:19;;;;;;;11.02;2.95;;;6.60;99.90;;;;;;4964421;28;20038;-76
2022/01/22 09:15:44;;;;;;;15.30;3.22;;;6.60;99.90;;;;;;4968089;28;20495;-77
2022/01/22 09:18:11;;;;;;;10.60;2.40;;;6.60;99.90;;;;;;4970595;28;20034;-76
2022/01/22 09:23:03;;;;;;;7.80;2.67;;;6.60;99.90;;;;;;4964207;28;20532;-76
2022/01/22 09:25:28;;;;;;;13.75;2.97;;;6.70;99.90;;;;;;4969774;28;20096;-77
2022/01/22 09:27:54;;;;;;;9.75;2.10;;;6.70;99.90;;;;;;4972303;28;20026;-77
2022/01/22 09:30:19;;;;;;;10.60;2.40;;;6.80;99.90;;;;;;4972297;28;20038;-76
2022/01/22 09:32:45;;;;;;;6.93;2.53;;;6.80;99.90;;;;;;4971387;28;20050;-76
2022/01/22 09:35:11;;;;;;;12.30;2.55;;;6.80;99.90;;;;;;4971635;28;20033;-77
2022/01/22 09:37:36;;;;;;;9.35;2.22;;;6.80;99.90;;;;;;4970854;28;20037;-77
2022/01/22 09:40:02;;;;;;;14.00;2.83;;;6.90;99.90;;;;;;4973035;28;20074;-77
2022/01/22 09:42:28;;;;;;;12.27;2.92;;;6.80;99.90;;;;;;4971236;28;20031;-76
2022/01/22 09:44:53;;;;;;;15.13;4.22;;;6.80;99.90;;;;;;4972762;28;20033;-77
2022/01/22 09:47:20;;;;;;;11.07;3.25;;;6.90;99.90;;;;;;4972590;28;20037;-77
2022/01/22 09:49:46;;;;;;;15.23;4.20;;;6.90;99.90;;;;;;4972317;28;20029;-77
2022/01/22 09:52:12;;;;;;;10.95;3.17;;;6.90;99.90;;;;;;4953536;28;20506;-77
2022/01/22 09:54:38;;;;;;;16.67;3.78;;;6.90;99.90;;;;;;4972082;28;20031;-76
2022/01/22 09:57:05;;;;;;;13.52;3.78;;;7.00;99.90;;;;;;4972334;28;20038;-77
2022/01/22 09:59:31;;;;;;;13.05;4.03;;;7.00;99.90;;;;;;4971997;28;20026;-77
2022/01/22 10:02:17;;;;;;;14.93;4.85;;;7.00;99.90;;;;;;4966190;28;20034;-76
2022/01/22 10:04:52;;;;;;;20.83;5.65;;;7.00;99.90;;;;;;4970813;28;20380;-76
2022/01/22 10:07:23;;;;;;;17.30;5.85;;;7.00;99.90;;;;;;4972424;28;20030;-76
2022/01/22 10:09:59;;;;;;;17.50;6.32;;;7.00;99.90;;;;;;4986418;28;20082;-76
2022/01/22 10:12:26;;;;;;;16.15;7.22;;;7.00;99.90;;;;;;4958279;28;20562;-76
2022/01/22 10:15:07;;;;;;;18.55;7.70;;;7.00;99.90;;;;;;4957822;28;20034;-77
2022/01/22 10:17:54;;;;;;;17.42;7.38;;;7.00;99.90;;;;;;4955249;28;20640;-76
2022/01/22 10:20:29;;;;;;;25.25;8.18;;;7.00;99.90;;;;;;4971954;28;20057;-77
2022/01/22 10:23:02;;;;;;;18.48;7.32;;;7.00;99.90;;;;;;4971445;28;20057;-76
2022/01/22 10:25:34;;;;;;;17.02;5.78;;;7.00;99.90;;;;;;4971907;28;20031;-77
2022/01/22 10:28:06;;;;;;;14.32;5.60;;;7.00;99.90;;;;;;4973294;28;20503;-77
2022/01/22 10:30:39;;;;;;;12.93;4.73;;;7.00;99.90;;;;;;4951018;28;20488;-77
2022/01/22 10:33:24;;;;;;;8.00;3.35;;;7.00;99.90;;;;;;4969898;28;20554;-77
2022/01/22 10:35:50;;;;;;;7.85;3.20;;;6.90;99.90;;;;;;4971803;28;20058;-77
2022/01/22 10:38:21;;;;;;;15.68;3.85;;;6.90;99.90;;;;;;4971672;28;20031;-77
2022/01/22 10:40:48;;;;;;;13.18;3.40;;;6.90;99.90;;;;;;4970103;28;20495;-76
2022/01/22 10:43:27;;;;;;;10.65;2.83;;;6.90;99.90;;;;;;4971504;28;20497;-77
2022/01/22 10:46:10;;;;;;;8.70;2.70;;;6.90;99.90;;;;;;4965825;28;20106;-77
2022/01/22 10:48:38;;;;;;;12.32;3.45;;;6.80;99.90;;;;;;4974988;28;20030;-76
2022/01/22 10:51:13;;;;;;;6.45;2.15;;;6.80;99.90;;;;;;4974910;28;20247;-75
2022/01/22 10:53:44;;;;;;;12.93;2.47;;;6.80;99.90;;;;;;4974515;28;20090;-75
2022/01/22 10:56:12;;;;;;;8.85;2.92;;;6.80;99.90;;;;;;4975221;28;20045;-75
2022/01/22 10:58:51;;;;;;;10.55;2.55;;;6.90;99.90;;;;;;4974798;28;20018;-76
2022/01/22 11:01:17;;;;;;;8.98;3.17;;;6.90;99.90;;;;;;4955861;28;20022;-75
2022/01/22 11:03:42;;;;;;;9.25;2.88;;;6.90;99.90;;;;;;4972649;28;20026;-75
2022/01/22 11:06:24;;;;;;;9.45;3.65;;;7.00;99.90;;;;;;4975042;28;20032;-76
2022/01/22 11:08:50;;;;;;;15.57;4.00;;;7.00;99.90;;;;;;4974459;28;20518;-76
2022/01/22 11:11:15;;;;;;;9.20;3.60;;;7.00;99.90;;;;;;4975430;28;20062;-76
2022/01/22 11:13:41;;;;;;;11.35;3.58;;;7.10;99.90;;;;;;4951538;28;20039;-76
2022/01/22 11:16:07;;;;;;;10.82;3.60;;;7.10;99.90;;;;;;4973722;28;20057;-76
2022/01/22 11:18:33;;;;;;;11.82;4.80;;;7.10;99.90;;;;;;4974720;28;20435;-76
2022/01/22 11:21:01;;;;;;;14.02;4.45;;;7.10;99.90;;;;;;4975361;28;20023;-76
2022/01/22 11:23:28;;;;;;;13.07;4.22;;;7.10;99.90;;;;;;4970711;28;20034;-76
2022/01/22 11:25:54;;;;;;;10.98;2.60;;;7.00;99.90;;;;;;4973095;28;20050;-76
2022/01/22 11:28:20;;;;;;;12.48;2.60;;;7.00;99.90;;;;;;4974619;28;20062;-76
2022/01/22 11:30:48;;;;;;;9.93;2.22;;;7.10;99.90;;;;;;4973855;28;20487;-76
2022/01/22 11:33:17;;;;;;;7.07;2.25;;;7.00;99.90;;;;;;4973323;28;20073;-76
2022/01/22 11:36:00;;;;;;;5.32;1.90;;;7.00;99.90;;;;;;4961519;28;20031;-76
2022/01/22 11:38:34;;;;;;;6.95;2.33;;;7.00;99.90;;;;;;4970826;28;20443;-76
2022/01/22 11:41:12;;;;;;;10.18;2.38;;;7.00;99.90;;;;;;4972546;28;20444;-74
2022/01/22 11:44:06;;;;;;;13.82;3.00;;;7.00;99.90;;;;;;4969436;28;20038;-75
2022/01/22 11:46:36;;;;;;;11.75;3.22;;;7.00;99.90;;;;;;4973012;28;21247;-75
2022/01/22 11:49:27;;;;;;;15.93;3.50;;;6.90;99.90;;;;;;4967057;28;20086;-76
2022/01/22 11:52:13;;;;;;;11.77;3.33;;;6.90;99.90;;;;;;4973282;28;20034;-76
2022/01/22 11:54:57;;;;;;;13.15;3.75;;;6.90;99.90;;;;;;4972987;28;20046;-76
2022/01/22 11:57:26;;;;;;;14.38;3.97;;;6.90;99.90;;;;;;4973031;28;20431;-76
2022/01/22 12:00:22;;;;;;;10.07;3.85;;;6.90;99.90;;;;;;4971387;28;20023;-76
2022/01/22 12:03:03;;;;;;;11.82;3.85;;;7.00;99.90;;;;;;4964401;28;20047;-76
2022/01/22 12:05:29;;;;;;;10.75;4.30;;;6.90;99.90;;;;;;4972163;28;20124;-78
2022/01/22 12:07:59;;;;;;;12.43;3.75;;;7.00;99.90;;;;;;4969233;28;20018;-76
2022/01/22 12:10:41;;;;;;;16.00;4.97;;;7.00;99.90;;;;;;4973486;28;20081;-76
2022/01/22 12:16:08;;;;;;;16.35;5.05;;;7.00;99.90;;;;;;4954605;29;20042;-76
2022/01/22 12:18:39;;;;;;;13.73;5.88;;;7.00;99.90;;;;;;4970429;28;20062;-76
2022/01/22 12:23:32;;;;;;;12.05;5.38;;;7.00;99.90;;;;;;4971808;28;20051;-77
2022/01/22 12:26:00;;;;;;;11.98;4.80;;;7.00;99.90;;;;;;4956421;28;20081;-78
2022/01/22 12:28:40;;;;;;;14.00;5.20;;;7.00;99.90;;;;;;4953080;28;20066;-77
2022/01/22 12:31:19;;;;;;;14.30;5.30;;;7.10;99.90;;;;;;4957272;28;20019;-77
2022/01/22 12:33:52;;;;;;;13.70;5.55;;;7.10;99.90;;;;;;4963961;28;20046;-77
2022/01/22 12:36:25;;;;;;;20.42;5.80;;;7.10;99.90;;;;;;4970316;28;20019;-77
2022/01/22 12:39:09;;;;;;;19.48;5.93;;;7.10;99.90;;;;;;4970805;28;20043;-77
2022/01/22 12:44:09;;;;;;;11.00;5.30;;;7.10;99.90;;;;;;4972887;28;20483;-77
2022/01/22 12:46:36;;;;;;;19.23;7.15;;;7.10;99.90;;;;;;4971732;28;20023;-78
2022/01/22 12:49:03;;;;;;;15.73;6.40;;;7.10;99.90;;;;;;4969087;28;20033;-78
2022/01/22 12:51:30;;;;;;;19.90;6.70;;;7.10;99.90;;;;;;4970452;28;20031;-77
2022/01/22 12:53:56;;;;;;;18.08;6.60;;;7.10;99.90;;;;;;4969110;28;20042;-78
2022/01/22 12:59:01;;;;;;;19.77;6.55;;;7.10;99.90;;;;;;4972505;28;20037;-78
2022/01/22 13:01:29;;;;;;;17.65;6.78;;;7.10;99.90;;;;;;4972592;28;20084;-78
2022/01/22 13:03:57;;;;;;;14.27;6.88;;;7.10;99.90;;;;;;4972788;28;20151;-77
2022/01/22 13:06:25;;;;;;;14.48;6.38;;;7.10;99.90;;;;;;4972287;28;20089;-77
2022/01/22 13:08:58;;;;;;;18.85;7.00;;;7.10;99.90;;;;;;4971577;28;20023;-77
2022/01/22 13:11:28;;;;;;;18.50;6.80;;;7.10;99.90;;;;;;4972174;28;20023;-77
2022/01/22 13:13:54;;;;;;;14.85;7.07;;;7.10;99.90;;;;;;4971224;28;20045;-77
2022/01/22 13:16:22;;;;;;;16.48;6.57;;;7.10;99.90;;;;;;4970771;28;20022;-76
2022/01/22 13:19:06;;;;;;;16.13;8.18;;;7.10;99.90;;;;;;4965256;28;20035;-77
2022/01/22 13:21:32;;;;;;;17.45;7.65;;;7.00;99.90;;;;;;4969886;28;20035;-77
2022/01/22 13:24:02;;;;;;;17.02;7.53;;;7.00;99.90;;;;;;4970672;28;20192;-77
2022/01/22 13:26:51;;;;;;;18.15;8.38;;;7.10;99.90;;;;;;4971023;28;20031;-76
2022/01/22 13:29:32;;;;;;;13.20;7.53;;;7.10;99.90;;;;;;4965323;28;20027;-77
2022/01/22 13:32:25;;;;;;;15.60;8.32;;;7.10;99.90;;;;;;4971783;28;20042;-77
2022/01/22 13:35:09;;;;;;;13.73;7.82;;;7.10;99.90;;;;;;4971717;28;20057;-77
2022/01/22 13:45:03;;;;;;;13.05;6.60;;;7.20;99.90;;;;;;4930437;29;20579;-77
2022/01/22 13:49:40;;;;;;;13.07;6.43;;;7.20;99.90;;;;;;4969795;28;20509;-78
2022/01/22 13:52:09;;;;;;;9.35;5.88;;;7.20;99.90;;;;;;4977740;28;20526;-76
2022/01/22 13:54:41;;;;;;;12.07;6.68;;;7.20;99.90;;;;;;4970299;28;20111;-77
2022/01/22 13:57:12;;;;;;;15.93;6.82;;;7.20;99.90;;;;;;4969887;28;20022;-77
2022/01/22 13:59:41;;;;;;;14.27;8.05;;;7.20;99.90;;;;;;4969489;28;20105;-77
2022/01/22 14:05:02;;;;;;;12.48;7.00;;;7.20;99.90;;;;;;4968382;28;20031;-78
2022/01/22 14:07:44;;;;;;;18.80;7.75;;;7.20;99.90;;;;;;4966533;28;20058;-77
2022/01/22 14:10:13;;;;;;;;;;;7.20;99.90;;;;;;4953510;28;20395;-77
2022/01/22 14:13:04;;;;;;;17.85;9.27;;;7.20;99.90;;;;;;4971562;28;19906;-78
2022/01/22 14:15:34;;;;;;;15.05;7.15;;;7.20;99.90;;;;;;4968069;28;20053;-77
2022/01/22 14:18:13;;;;;;;15.63;7.85;;;7.20;99.90;;;;;;4968110;28;20038;-77
2022/01/22 14:20:42;;;;;;;20.00;8.13;;;7.10;99.90;;;;;;4969855;28;20034;-78
2022/01/22 14:23:14;;;;;;;21.60;8.15;;;7.20;99.90;;;;;;4968418;28;20174;-78
2022/01/22 14:26:00;;;;;;;17.92;8.48;;;7.20;99.90;;;;;;4968651;28;20037;-79
2022/01/22 14:29:01;;;;;;;17.10;8.88;;;7.20;99.90;;;;;;4975039;28;20069;-79
2022/01/22 14:31:57;;;;;;;15.25;8.80;;;7.20;99.90;;;;;;4967856;28;20038;-79
2022/01/22 14:34:33;;;;;;;17.02;8.27;;;7.20;99.90;;;;;;4971646;28;20565;-80
2022/01/22 14:37:01;;;;;;;20.35;11.75;;;7.20;99.90;;;;;;4979431;28;20085;-78
2022/01/22 14:45:21;;;;;;;31.63;15.32;;;7.10;99.90;;;;;;4975665;28;20502;-78
2022/01/22 14:47:54;;;;;;;22.30;15.43;;;7.10;99.90;;;;;;4969532;28;20023;-78
2022/01/22 14:50:21;;;;;;;29.90;16.70;;;7.10;99.90;;;;;;4974505;28;20058;-77
2022/01/22 14:52:49;;;;;;;28.10;18.00;;;7.10;99.90;;;;;;4967977;28;20483;-78
2022/01/22 14:55:15;;;;;;;31.20;18.92;;;7.10;99.90;;;;;;4974638;28;20026;-78
2022/01/22 14:57:42;;;;;;;39.95;19.95;;;7.00;99.90;;;;;;4973244;28;20037;-78